sensor_id;sensor_type;location;lat;lon;timestamp;temperature;humidity
7666;DHT22;3875;46.562;4.898;2023-09-07T00:01:30;23.30;73.90
7666;DHT22;3875;46.562;4.898;2023-09-07T00:03:56;23.40;73.90
7666;DHT22;3875;46.562;4.898;2023-09-07T00:06:22;23.40;74.00
7666;DHT22;3875;46.562;4.898;2023-09-07T00:08:48;23.40;74.10
7666;DHT22;3875;46.562;4.898;2023-09-07T00:11:13;23.30;74.10
7666;DHT22;3875;46.562;4.898;2023-09-07T00:13:39;23.30;74.30
7666;DHT22;3875;46.562;4.898;2023-09-07T00:16:05;23.30;74.30
7666;DHT22;3875;46.562;4.898;2023-09-07T00:18:32;23.20;74.50
7666;DHT22;3875;46.562;4.898;2023-09-07T00:20:58;23.20;74.60
7666;DHT22;3875;46.562;4.898;2023-09-07T00:23:25;23.10;74.70
7666;DHT22;3875;46.562;4.898;2023-09-07T00:25:50;23.10;74.90
7666;DHT22;3875;46.562;4.898;2023-09-07T00:28:16;23.00;75.10
7666;DHT22;3875;46.562;4.898;2023-09-07T00:30:42;22.90;75.10
7666;DHT22;3875;46.562;4.898;2023-09-07T00:33:08;22.90;75.20
7666;DHT22;3875;46.562;4.898;2023-09-07T00:35:33;23.00;75.30
7666;DHT22;3875;46.562;4.898;2023-09-07T00:38:00;22.90;75.30
7666;DHT22;3875;46.562;4.898;2023-09-07T00:40:25;22.80;75.50
7666;DHT22;3875;46.562;4.898;2023-09-07T00:42:52;22.80;75.40
7666;DHT22;3875;46.562;4.898;2023-09-07T00:45:18;22.90;75.10
7666;DHT22;3875;46.562;4.898;2023-09-07T00:47:44;22.90;74.80
7666;DHT22;3875;46.562;4.898;2023-09-07T00:50:10;22.80;74.70
7666;DHT22;3875;46.562;4.898;2023-09-07T00:52:42;22.80;74.90
7666;DHT22;3875;46.562;4.898;2023-09-07T00:55:08;22.80;75.00
7666;DHT22;3875;46.562;4.898;2023-09-07T00:57:35;22.70;75.10
7666;DHT22;3875;46.562;4.898;2023-09-07T01:00:03;22.70;75.00
7666;DHT22;3875;46.562;4.898;2023-09-07T01:02:31;22.60;75.10
7666;DHT22;3875;46.562;4.898;2023-09-07T01:04:57;22.70;75.10
7666;DHT22;3875;46.562;4.898;2023-09-07T01:07:40;22.70;75.20
7666;DHT22;3875;46.562;4.898;2023-09-07T01:10:08;22.70;75.00
7666;DHT22;3875;46.562;4.898;2023-09-07T01:12:34;22.80;74.80
7666;DHT22;3875;46.562;4.898;2023-09-07T01:14:59;22.80;74.80
7666;DHT22;3875;46.562;4.898;2023-09-07T01:17:25;22.80;74.80
7666;DHT22;3875;46.562;4.898;2023-09-07T01:19:52;22.80;74.90
7666;DHT22;3875;46.562;4.898;2023-09-07T01:22:20;22.80;74.80
7666;DHT22;3875;46.562;4.898;2023-09-07T01:24:50;22.80;74.80
7666;DHT22;3875;46.562;4.898;2023-09-07T01:27:16;22.70;74.70
7666;DHT22;3875;46.562;4.898;2023-09-07T01:29:42;22.70;75.00
7666;DHT22;3875;46.562;4.898;2023-09-07T01:32:08;22.70;74.90
7666;DHT22;3875;46.562;4.898;2023-09-07T01:34:35;22.60;75.00
7666;DHT22;3875;46.562;4.898;2023-09-07T01:37:01;22.60;75.10
7666;DHT22;3875;46.562;4.898;2023-09-07T01:39:27;22.50;75.10
7666;DHT22;3875;46.562;4.898;2023-09-07T01:41:52;22.50;75.30
7666;DHT22;3875;46.562;4.898;2023-09-07T01:44:18;22.50;75.20
7666;DHT22;3875;46.562;4.898;2023-09-07T01:46:43;22.50;75.30
7666;DHT22;3875;46.562;4.898;2023-09-07T01:49:09;22.40;75.30
7666;DHT22;3875;46.562;4.898;2023-09-07T01:51:35;22.40;75.30
7666;DHT22;3875;46.562;4.898;2023-09-07T01:54:00;22.40;75.30
7666;DHT22;3875;46.562;4.898;2023-09-07T01:56:26;22.40;75.50
7666;DHT22;3875;46.562;4.898;2023-09-07T01:58:52;22.40;75.20
7666;DHT22;3875;46.562;4.898;2023-09-07T02:01:24;22.40;75.20
7666;DHT22;3875;46.562;4.898;2023-09-07T02:03:50;22.40;75.20
7666;DHT22;3875;46.562;4.898;2023-09-07T02:06:16;22.30;75.20
7666;DHT22;3875;46.562;4.898;2023-09-07T02:08:42;22.30;75.30
7666;DHT22;3875;46.562;4.898;2023-09-07T02:11:07;22.20;75.30
7666;DHT22;3875;46.562;4.898;2023-09-07T02:13:33;22.20;75.40
7666;DHT22;3875;46.562;4.898;2023-09-07T02:16:03;22.20;75.40
7666;DHT22;3875;46.562;4.898;2023-09-07T02:18:29;22.20;75.50
7666;DHT22;3875;46.562;4.898;2023-09-07T02:21:00;22.20;75.40
7666;DHT22;3875;46.562;4.898;2023-09-07T02:23:26;22.20;75.40
7666;DHT22;3875;46.562;4.898;2023-09-07T02:25:51;22.20;75.20
7666;DHT22;3875;46.562;4.898;2023-09-07T02:28:17;22.10;75.10
7666;DHT22;3875;46.562;4.898;2023-09-07T02:30:43;22.10;75.40
7666;DHT22;3875;46.562;4.898;2023-09-07T02:33:08;22.10;75.40
7666;DHT22;3875;46.562;4.898;2023-09-07T02:35:37;22.10;75.30
7666;DHT22;3875;46.562;4.898;2023-09-07T02:38:03;22.10;75.00
7666;DHT22;3875;46.562;4.898;2023-09-07T02:40:28;22.20;74.90
7666;DHT22;3875;46.562;4.898;2023-09-07T02:42:54;22.10;74.90
7666;DHT22;3875;46.562;4.898;2023-09-07T02:45:20;22.10;75.00
7666;DHT22;3875;46.562;4.898;2023-09-07T02:47:45;22.10;75.10
7666;DHT22;3875;46.562;4.898;2023-09-07T02:50:12;22.10;75.20
7666;DHT22;3875;46.562;4.898;2023-09-07T02:52:39;22.00;75.30
7666;DHT22;3875;46.562;4.898;2023-09-07T02:55:05;22.00;75.30
7666;DHT22;3875;46.562;4.898;2023-09-07T02:57:31;21.90;75.40
7666;DHT22;3875;46.562;4.898;2023-09-07T02:59:57;21.90;75.30
7666;DHT22;3875;46.562;4.898;2023-09-07T03:02:23;21.90;75.30
7666;DHT22;3875;46.562;4.898;2023-09-07T03:04:53;21.90;75.20
7666;DHT22;3875;46.562;4.898;2023-09-07T03:07:20;21.90;75.10
7666;DHT22;3875;46.562;4.898;2023-09-07T03:09:45;21.90;75.00
7666;DHT22;3875;46.562;4.898;2023-09-07T03:12:11;21.90;75.00
7666;DHT22;3875;46.562;4.898;2023-09-07T03:14:37;21.90;74.90
7666;DHT22;3875;46.562;4.898;2023-09-07T03:17:02;21.80;74.90
7666;DHT22;3875;46.562;4.898;2023-09-07T03:19:29;21.80;74.80
7666;DHT22;3875;46.562;4.898;2023-09-07T03:21:54;21.70;74.90
7666;DHT22;3875;46.562;4.898;2023-09-07T03:24:20;21.70;74.90
7666;DHT22;3875;46.562;4.898;2023-09-07T03:26:46;21.60;75.10
7666;DHT22;3875;46.562;4.898;2023-09-07T03:29:11;21.60;75.20
7666;DHT22;3875;46.562;4.898;2023-09-07T03:31:37;21.50;74.90
7666;DHT22;3875;46.562;4.898;2023-09-07T03:34:03;21.50;75.00
7666;DHT22;3875;46.562;4.898;2023-09-07T03:36:29;21.50;75.00
7666;DHT22;3875;46.562;4.898;2023-09-07T03:38:54;21.40;75.40
7666;DHT22;3875;46.562;4.898;2023-09-07T03:41:20;21.40;75.40
7666;DHT22;3875;46.562;4.898;2023-09-07T03:43:45;21.30;75.30
7666;DHT22;3875;46.562;4.898;2023-09-07T03:46:11;21.30;75.50
7666;DHT22;3875;46.562;4.898;2023-09-07T03:48:37;21.20;75.40
7666;DHT22;3875;46.562;4.898;2023-09-07T03:51:06;21.20;75.30
7666;DHT22;3875;46.562;4.898;2023-09-07T03:53:31;21.10;75.60
7666;DHT22;3875;46.562;4.898;2023-09-07T03:55:57;21.10;75.60
7666;DHT22;3875;46.562;4.898;2023-09-07T03:58:23;21.00;75.50
7666;DHT22;3875;46.562;4.898;2023-09-07T04:00:49;21.00;75.40
7666;DHT22;3875;46.562;4.898;2023-09-07T04:03:15;20.90;75.50
7666;DHT22;3875;46.562;4.898;2023-09-07T04:05:41;20.90;75.50
7666;DHT22;3875;46.562;4.898;2023-09-07T04:10:33;20.90;75.50
7666;DHT22;3875;46.562;4.898;2023-09-07T04:12:58;20.90;75.50
7666;DHT22;3875;46.562;4.898;2023-09-07T04:15:24;20.90;75.40
7666;DHT22;3875;46.562;4.898;2023-09-07T04:17:52;20.90;75.50
7666;DHT22;3875;46.562;4.898;2023-09-07T04:20:17;20.90;75.70
7666;DHT22;3875;46.562;4.898;2023-09-07T04:22:43;20.90;75.60
7666;DHT22;3875;46.562;4.898;2023-09-07T04:25:09;20.90;75.50
7666;DHT22;3875;46.562;4.898;2023-09-07T04:27:34;20.90;75.40
7666;DHT22;3875;46.562;4.898;2023-09-07T04:30:00;20.90;75.50
7666;DHT22;3875;46.562;4.898;2023-09-07T04:32:26;20.90;75.40
7666;DHT22;3875;46.562;4.898;2023-09-07T04:34:57;20.80;75.40
7666;DHT22;3875;46.562;4.898;2023-09-07T04:37:25;20.80;75.40
7666;DHT22;3875;46.562;4.898;2023-09-07T04:39:51;20.80;75.20
7666;DHT22;3875;46.562;4.898;2023-09-07T04:42:18;20.70;75.20
7666;DHT22;3875;46.562;4.898;2023-09-07T04:44:44;20.70;75.10
7666;DHT22;3875;46.562;4.898;2023-09-07T04:47:10;20.70;75.00
7666;DHT22;3875;46.562;4.898;2023-09-07T04:49:35;20.70;75.00
7666;DHT22;3875;46.562;4.898;2023-09-07T04:52:01;20.70;74.80
7666;DHT22;3875;46.562;4.898;2023-09-07T04:54:27;20.60;74.70
7666;DHT22;3875;46.562;4.898;2023-09-07T04:56:52;20.60;74.70
7666;DHT22;3875;46.562;4.898;2023-09-07T04:59:18;20.60;74.70
7666;DHT22;3875;46.562;4.898;2023-09-07T05:01:44;20.60;74.70
7666;DHT22;3875;46.562;4.898;2023-09-07T05:04:09;20.60;74.50
7666;DHT22;3875;46.562;4.898;2023-09-07T05:06:35;20.60;74.40
7666;DHT22;3875;46.562;4.898;2023-09-07T05:09:03;20.60;74.40
7666;DHT22;3875;46.562;4.898;2023-09-07T05:11:29;20.60;74.20
7666;DHT22;3875;46.562;4.898;2023-09-07T05:13:54;20.60;74.20
7666;DHT22;3875;46.562;4.898;2023-09-07T05:16:20;20.60;74.20
7666;DHT22;3875;46.562;4.898;2023-09-07T05:18:46;20.60;74.20
7666;DHT22;3875;46.562;4.898;2023-09-07T05:21:13;20.60;74.00
7666;DHT22;3875;46.562;4.898;2023-09-07T05:23:39;20.60;73.90
7666;DHT22;3875;46.562;4.898;2023-09-07T05:26:04;20.60;73.80
7666;DHT22;3875;46.562;4.898;2023-09-07T05:28:30;20.60;73.70
7666;DHT22;3875;46.562;4.898;2023-09-07T05:30:56;20.60;73.50
7666;DHT22;3875;46.562;4.898;2023-09-07T05:33:21;20.70;73.20
7666;DHT22;3875;46.562;4.898;2023-09-07T05:35:47;20.70;73.10
7666;DHT22;3875;46.562;4.898;2023-09-07T05:38:13;20.70;72.90
7666;DHT22;3875;46.562;4.898;2023-09-07T05:40:42;20.80;72.60
7666;DHT22;3875;46.562;4.898;2023-09-07T05:43:10;20.80;72.40
7666;DHT22;3875;46.562;4.898;2023-09-07T05:45:40;20.90;72.30
7666;DHT22;3875;46.562;4.898;2023-09-07T05:48:06;20.90;71.90
7666;DHT22;3875;46.562;4.898;2023-09-07T05:50:36;21.00;71.90
7666;DHT22;3875;46.562;4.898;2023-09-07T05:53:02;21.00;71.80
7666;DHT22;3875;46.562;4.898;2023-09-07T05:55:29;21.00;71.60
7666;DHT22;3875;46.562;4.898;2023-09-07T05:57:55;21.10;71.50
7666;DHT22;3875;46.562;4.898;2023-09-07T06:00:21;21.20;71.30
7666;DHT22;3875;46.562;4.898;2023-09-07T06:02:47;21.20;71.10
7666;DHT22;3875;46.562;4.898;2023-09-07T06:05:13;21.30;71.10
7666;DHT22;3875;46.562;4.898;2023-09-07T06:07:39;21.40;70.70
7666;DHT22;3875;46.562;4.898;2023-09-07T06:10:05;21.40;70.50
7666;DHT22;3875;46.562;4.898;2023-09-07T06:12:32;21.50;70.30
7666;DHT22;3875;46.562;4.898;2023-09-07T06:14:57;21.60;69.80
7666;DHT22;3875;46.562;4.898;2023-09-07T06:17:23;21.70;69.70
7666;DHT22;3875;46.562;4.898;2023-09-07T06:19:49;21.80;69.40
7666;DHT22;3875;46.562;4.898;2023-09-07T06:22:14;21.90;69.20
7666;DHT22;3875;46.562;4.898;2023-09-07T06:24:40;22.00;69.00
7666;DHT22;3875;46.562;4.898;2023-09-07T06:27:06;22.10;68.80
7666;DHT22;3875;46.562;4.898;2023-09-07T06:29:31;22.20;68.40
7666;DHT22;3875;46.562;4.898;2023-09-07T06:31:57;22.30;68.20
7666;DHT22;3875;46.562;4.898;2023-09-07T06:34:23;22.40;68.00
7666;DHT22;3875;46.562;4.898;2023-09-07T06:36:49;22.50;67.70
7666;DHT22;3875;46.562;4.898;2023-09-07T06:39:15;22.60;67.50
7666;DHT22;3875;46.562;4.898;2023-09-07T06:41:40;22.70;67.20
7666;DHT22;3875;46.562;4.898;2023-09-07T06:44:07;22.70;67.00
7666;DHT22;3875;46.562;4.898;2023-09-07T06:46:33;22.70;67.20
7666;DHT22;3875;46.562;4.898;2023-09-07T06:48:58;22.80;67.00
7666;DHT22;3875;46.562;4.898;2023-09-07T06:51:24;22.90;66.70
7666;DHT22;3875;46.562;4.898;2023-09-07T06:53:50;23.00;66.80
7666;DHT22;3875;46.562;4.898;2023-09-07T06:56:15;23.10;66.20
7666;DHT22;3875;46.562;4.898;2023-09-07T06:58:41;23.20;66.20
7666;DHT22;3875;46.562;4.898;2023-09-07T07:01:07;23.30;65.70
7666;DHT22;3875;46.562;4.898;2023-09-07T07:03:33;23.40;65.20
7666;DHT22;3875;46.562;4.898;2023-09-07T07:06:00;23.50;65.70
7666;DHT22;3875;46.562;4.898;2023-09-07T07:08:25;23.50;65.00
7666;DHT22;3875;46.562;4.898;2023-09-07T07:10:51;23.60;65.30
7666;DHT22;3875;46.562;4.898;2023-09-07T07:13:17;23.60;64.90
7666;DHT22;3875;46.562;4.898;2023-09-07T07:15:42;23.70;65.20
7666;DHT22;3875;46.562;4.898;2023-09-07T07:18:08;23.80;64.50
7666;DHT22;3875;46.562;4.898;2023-09-07T07:20:38;23.90;64.30
7666;DHT22;3875;46.562;4.898;2023-09-07T07:23:04;24.00;64.20
7666;DHT22;3875;46.562;4.898;2023-09-07T07:25:32;24.00;64.00
7666;DHT22;3875;46.562;4.898;2023-09-07T07:27:59;24.10;64.10
7666;DHT22;3875;46.562;4.898;2023-09-07T07:30:29;24.20;63.50
7666;DHT22;3875;46.562;4.898;2023-09-07T07:32:55;24.30;63.60
7666;DHT22;3875;46.562;4.898;2023-09-07T07:35:22;24.40;63.30
7666;DHT22;3875;46.562;4.898;2023-09-07T07:37:48;24.50;62.40
7666;DHT22;3875;46.562;4.898;2023-09-07T07:40:13;24.60;62.80
7666;DHT22;3875;46.562;4.898;2023-09-07T07:42:39;24.70;61.90
7666;DHT22;3875;46.562;4.898;2023-09-07T07:45:05;24.70;62.50
7666;DHT22;3875;46.562;4.898;2023-09-07T07:47:31;24.90;62.80
7666;DHT22;3875;46.562;4.898;2023-09-07T07:49:56;25.10;62.20
7666;DHT22;3875;46.562;4.898;2023-09-07T07:52:22;25.20;62.10
7666;DHT22;3875;46.562;4.898;2023-09-07T07:54:48;25.40;61.70
7666;DHT22;3875;46.562;4.898;2023-09-07T07:57:13;25.50;61.70
7666;DHT22;3875;46.562;4.898;2023-09-07T07:59:39;25.50;61.20
7666;DHT22;3875;46.562;4.898;2023-09-07T08:02:05;25.60;61.00
7666;DHT22;3875;46.562;4.898;2023-09-07T08:04:31;25.50;61.30
7666;DHT22;3875;46.562;4.898;2023-09-07T08:06:58;25.60;61.60
7666;DHT22;3875;46.562;4.898;2023-09-07T08:09:29;25.60;61.90
7666;DHT22;3875;46.562;4.898;2023-09-07T08:11:56;25.70;61.80
7666;DHT22;3875;46.562;4.898;2023-09-07T08:14:24;25.80;61.80
7666;DHT22;3875;46.562;4.898;2023-09-07T08:16:50;25.90;61.90
7666;DHT22;3875;46.562;4.898;2023-09-07T08:19:16;26.00;61.80
7666;DHT22;3875;46.562;4.898;2023-09-07T08:21:42;26.10;62.00
7666;DHT22;3875;46.562;4.898;2023-09-07T08:24:08;26.30;61.60
7666;DHT22;3875;46.562;4.898;2023-09-07T08:26:36;26.50;61.60
7666;DHT22;3875;46.562;4.898;2023-09-07T08:29:01;26.60;61.30
7666;DHT22;3875;46.562;4.898;2023-09-07T08:31:35;26.90;60.60
7666;DHT22;3875;46.562;4.898;2023-09-07T08:34:05;27.00;59.80
7666;DHT22;3875;46.562;4.898;2023-09-07T08:36:31;27.00;59.90
7666;DHT22;3875;46.562;4.898;2023-09-07T08:38:59;26.90;60.40
7666;DHT22;3875;46.562;4.898;2023-09-07T08:41:27;27.00;60.50
7666;DHT22;3875;46.562;4.898;2023-09-07T08:43:54;27.10;60.10
7666;DHT22;3875;46.562;4.898;2023-09-07T08:46:22;27.50;60.10
7666;DHT22;3875;46.562;4.898;2023-09-07T08:48:52;27.60;59.90
7666;DHT22;3875;46.562;4.898;2023-09-07T08:51:19;27.80;59.30
7666;DHT22;3875;46.562;4.898;2023-09-07T08:53:45;27.90;59.30
7666;DHT22;3875;46.562;4.898;2023-09-07T08:56:14;28.00;58.60
7666;DHT22;3875;46.562;4.898;2023-09-07T08:58:41;28.10;58.50
7666;DHT22;3875;46.562;4.898;2023-09-07T09:01:07;28.30;58.60
7666;DHT22;3875;46.562;4.898;2023-09-07T09:03:38;28.50;58.20
7666;DHT22;3875;46.562;4.898;2023-09-07T09:06:04;28.60;57.70
7666;DHT22;3875;46.562;4.898;2023-09-07T09:08:48;28.60;58.00
7666;DHT22;3875;46.562;4.898;2023-09-07T09:11:18;28.60;57.50
7666;DHT22;3875;46.562;4.898;2023-09-07T09:13:44;28.50;58.00
7666;DHT22;3875;46.562;4.898;2023-09-07T09:16:11;28.70;57.10
7666;DHT22;3875;46.562;4.898;2023-09-07T09:18:38;28.70;57.90
7666;DHT22;3875;46.562;4.898;2023-09-07T09:21:14;28.80;57.70
7666;DHT22;3875;46.562;4.898;2023-09-07T09:23:40;29.00;57.70
7666;DHT22;3875;46.562;4.898;2023-09-07T09:26:06;29.20;57.80
7666;DHT22;3875;46.562;4.898;2023-09-07T09:28:33;29.50;57.70
7666;DHT22;3875;46.562;4.898;2023-09-07T09:31:00;29.60;56.60
7666;DHT22;3875;46.562;4.898;2023-09-07T09:33:26;29.70;56.70
7666;DHT22;3875;46.562;4.898;2023-09-07T09:35:53;29.90;56.50
7666;DHT22;3875;46.562;4.898;2023-09-07T09:38:19;30.00;56.40
7666;DHT22;3875;46.562;4.898;2023-09-07T09:40:45;30.20;56.30
7666;DHT22;3875;46.562;4.898;2023-09-07T09:43:13;30.40;55.80
7666;DHT22;3875;46.562;4.898;2023-09-07T09:45:39;30.50;55.40
7666;DHT22;3875;46.562;4.898;2023-09-07T09:48:08;30.60;55.80
7666;DHT22;3875;46.562;4.898;2023-09-07T09:50:35;30.80;55.30
7666;DHT22;3875;46.562;4.898;2023-09-07T09:53:05;31.00;54.90
7666;DHT22;3875;46.562;4.898;2023-09-07T09:55:33;30.90;54.60
7666;DHT22;3875;46.562;4.898;2023-09-07T09:57:59;31.00;55.10
7666;DHT22;3875;46.562;4.898;2023-09-07T10:00:24;31.20;54.70
7666;DHT22;3875;46.562;4.898;2023-09-07T10:05:45;31.60;54.70
7666;DHT22;3875;46.562;4.898;2023-09-07T10:08:17;32.00;53.50
7666;DHT22;3875;46.562;4.898;2023-09-07T10:10:46;32.10;53.10
7666;DHT22;3875;46.562;4.898;2023-09-07T10:13:16;32.00;53.60
7666;DHT22;3875;46.562;4.898;2023-09-07T10:16:00;32.20;53.40
7666;DHT22;3875;46.562;4.898;2023-09-07T10:18:34;32.40;52.70
7666;DHT22;3875;46.562;4.898;2023-09-07T10:21:00;32.40;53.40
7666;DHT22;3875;46.562;4.898;2023-09-07T10:23:41;32.60;53.30
7666;DHT22;3875;46.562;4.898;2023-09-07T10:26:18;32.80;53.00
7666;DHT22;3875;46.562;4.898;2023-09-07T10:28:46;33.20;52.40
7666;DHT22;3875;46.562;4.898;2023-09-07T10:31:19;33.30;52.20
7666;DHT22;3875;46.562;4.898;2023-09-07T10:33:46;33.30;51.70
7666;DHT22;3875;46.562;4.898;2023-09-07T10:36:25;33.20;52.30
7666;DHT22;3875;46.562;4.898;2023-09-07T10:38:52;33.20;52.20
7666;DHT22;3875;46.562;4.898;2023-09-07T10:41:21;33.20;51.90
7666;DHT22;3875;46.562;4.898;2023-09-07T10:43:48;33.20;52.60
7666;DHT22;3875;46.562;4.898;2023-09-07T10:46:14;33.30;52.10
7666;DHT22;3875;46.562;4.898;2023-09-07T10:48:40;33.30;52.20
7666;DHT22;3875;46.562;4.898;2023-09-07T10:51:06;33.40;52.30
7666;DHT22;3875;46.562;4.898;2023-09-07T10:53:32;33.40;52.10
7666;DHT22;3875;46.562;4.898;2023-09-07T10:56:02;33.50;52.30
7666;DHT22;3875;46.562;4.898;2023-09-07T10:58:35;33.50;51.80
7666;DHT22;3875;46.562;4.898;2023-09-07T11:01:04;33.60;51.90
7666;DHT22;3875;46.562;4.898;2023-09-07T11:03:31;33.70;51.60
7666;DHT22;3875;46.562;4.898;2023-09-07T11:06:04;33.80;51.70
7666;DHT22;3875;46.562;4.898;2023-09-07T11:08:31;34.00;51.50
7666;DHT22;3875;46.562;4.898;2023-09-07T11:10:56;34.10;51.50
7666;DHT22;3875;46.562;4.898;2023-09-07T11:13:24;34.10;51.50
7666;DHT22;3875;46.562;4.898;2023-09-07T11:15:53;34.20;51.30
7666;DHT22;3875;46.562;4.898;2023-09-07T11:18:24;34.30;51.00
7666;DHT22;3875;46.562;4.898;2023-09-07T11:20:51;34.40;51.00
7666;DHT22;3875;46.562;4.898;2023-09-07T11:23:18;34.40;50.50
7666;DHT22;3875;46.562;4.898;2023-09-07T11:25:47;34.50;51.10
7666;DHT22;3875;46.562;4.898;2023-09-07T11:28:14;34.70;50.90
7666;DHT22;3875;46.562;4.898;2023-09-07T11:30:51;34.70;50.50
7666;DHT22;3875;46.562;4.898;2023-09-07T11:33:17;34.90;49.80
7666;DHT22;3875;46.562;4.898;2023-09-07T11:35:42;35.00;50.60
7666;DHT22;3875;46.562;4.898;2023-09-07T11:38:12;35.00;50.20
7666;DHT22;3875;46.562;4.898;2023-09-07T11:40:37;35.00;50.60
7666;DHT22;3875;46.562;4.898;2023-09-07T11:43:03;35.10;50.30
7666;DHT22;3875;46.562;4.898;2023-09-07T11:45:29;34.90;50.40
7666;DHT22;3875;46.562;4.898;2023-09-07T11:47:54;35.20;51.10
7666;DHT22;3875;46.562;4.898;2023-09-07T11:50:23;35.40;50.40
7666;DHT22;3875;46.562;4.898;2023-09-07T11:52:50;35.50;50.20
7666;DHT22;3875;46.562;4.898;2023-09-07T11:55:16;35.60;50.20
7666;DHT22;3875;46.562;4.898;2023-09-07T11:57:41;35.70;49.00
7666;DHT22;3875;46.562;4.898;2023-09-07T12:00:08;35.50;49.00
7666;DHT22;3875;46.562;4.898;2023-09-07T12:02:38;35.50;49.20
7666;DHT22;3875;46.562;4.898;2023-09-07T12:05:05;35.30;50.00
7666;DHT22;3875;46.562;4.898;2023-09-07T12:07:32;35.30;50.00
7666;DHT22;3875;46.562;4.898;2023-09-07T12:09:58;35.40;49.30
7666;DHT22;3875;46.562;4.898;2023-09-07T12:12:24;35.40;49.90
7666;DHT22;3875;46.562;4.898;2023-09-07T12:14:49;35.40;49.50
7666;DHT22;3875;46.562;4.898;2023-09-07T12:17:15;35.30;49.30
7666;DHT22;3875;46.562;4.898;2023-09-07T12:19:41;35.40;49.40
7666;DHT22;3875;46.562;4.898;2023-09-07T12:22:07;35.50;49.40
7666;DHT22;3875;46.562;4.898;2023-09-07T12:24:33;35.60;49.10
7666;DHT22;3875;46.562;4.898;2023-09-07T12:26:59;35.70;49.00
7666;DHT22;3875;46.562;4.898;2023-09-07T12:29:25;35.70;49.30
7666;DHT22;3875;46.562;4.898;2023-09-07T12:31:51;35.80;49.40
7666;DHT22;3875;46.562;4.898;2023-09-07T12:34:16;35.90;49.10
7666;DHT22;3875;46.562;4.898;2023-09-07T12:36:42;36.00;49.50
7666;DHT22;3875;46.562;4.898;2023-09-07T12:39:08;36.00;49.20
7666;DHT22;3875;46.562;4.898;2023-09-07T12:41:34;36.20;48.70
7666;DHT22;3875;46.562;4.898;2023-09-07T12:43:59;36.10;48.60
7666;DHT22;3875;46.562;4.898;2023-09-07T12:46:25;36.00;48.60
7666;DHT22;3875;46.562;4.898;2023-09-07T12:48:51;36.10;49.00
7666;DHT22;3875;46.562;4.898;2023-09-07T12:51:16;36.20;48.90
7666;DHT22;3875;46.562;4.898;2023-09-07T12:53:42;36.30;48.80
7666;DHT22;3875;46.562;4.898;2023-09-07T12:56:08;36.30;48.20
7666;DHT22;3875;46.562;4.898;2023-09-07T12:58:33;36.30;48.20
7666;DHT22;3875;46.562;4.898;2023-09-07T13:00:59;36.20;48.00
7666;DHT22;3875;46.562;4.898;2023-09-07T13:03:27;36.20;49.20
7666;DHT22;3875;46.562;4.898;2023-09-07T13:05:53;36.30;48.20
7666;DHT22;3875;46.562;4.898;2023-09-07T13:08:19;36.40;48.40
7666;DHT22;3875;46.562;4.898;2023-09-07T13:10:45;36.50;48.30
7666;DHT22;3875;46.562;4.898;2023-09-07T13:13:11;36.50;48.00
7666;DHT22;3875;46.562;4.898;2023-09-07T13:15:37;36.40;47.90
7666;DHT22;3875;46.562;4.898;2023-09-07T13:18:02;36.50;48.10
7666;DHT22;3875;46.562;4.898;2023-09-07T13:20:28;36.50;48.30
7666;DHT22;3875;46.562;4.898;2023-09-07T13:22:54;36.50;48.00
7666;DHT22;3875;46.562;4.898;2023-09-07T13:25:19;36.60;48.00
7666;DHT22;3875;46.562;4.898;2023-09-07T13:27:45;36.60;47.50
7666;DHT22;3875;46.562;4.898;2023-09-07T13:30:11;36.50;47.50
7666;DHT22;3875;46.562;4.898;2023-09-07T13:32:39;36.50;48.10
7666;DHT22;3875;46.562;4.898;2023-09-07T13:35:05;36.60;47.60
7666;DHT22;3875;46.562;4.898;2023-09-07T13:37:31;36.50;47.70
7666;DHT22;3875;46.562;4.898;2023-09-07T13:39:57;36.40;47.40
7666;DHT22;3875;46.562;4.898;2023-09-07T13:42:22;36.60;47.40
7666;DHT22;3875;46.562;4.898;2023-09-07T13:44:48;36.80;47.80
7666;DHT22;3875;46.562;4.898;2023-09-07T13:47:15;37.00;47.70
7666;DHT22;3875;46.562;4.898;2023-09-07T13:49:41;37.00;47.00
7666;DHT22;3875;46.562;4.898;2023-09-07T13:52:06;37.00;47.20
7666;DHT22;3875;46.562;4.898;2023-09-07T13:54:32;36.90;46.70
7666;DHT22;3875;46.562;4.898;2023-09-07T13:56:57;36.80;47.50
7666;DHT22;3875;46.562;4.898;2023-09-07T13:59:23;36.90;47.10
7666;DHT22;3875;46.562;4.898;2023-09-07T14:01:53;36.90;47.60
7666;DHT22;3875;46.562;4.898;2023-09-07T14:04:19;37.00;47.20
7666;DHT22;3875;46.562;4.898;2023-09-07T14:06:45;37.10;46.90
7666;DHT22;3875;46.562;4.898;2023-09-07T14:09:10;37.10;46.70
7666;DHT22;3875;46.562;4.898;2023-09-07T14:11:36;37.10;47.30
7666;DHT22;3875;46.562;4.898;2023-09-07T14:14:02;37.10;47.00
7666;DHT22;3875;46.562;4.898;2023-09-07T14:16:54;37.20;47.20
7666;DHT22;3875;46.562;4.898;2023-09-07T14:19:22;37.20;47.10
7666;DHT22;3875;46.562;4.898;2023-09-07T14:21:48;37.10;46.30
7666;DHT22;3875;46.562;4.898;2023-09-07T14:24:13;37.10;47.00
7666;DHT22;3875;46.562;4.898;2023-09-07T14:26:39;37.10;46.40
7666;DHT22;3875;46.562;4.898;2023-09-07T14:29:05;37.10;46.40
7666;DHT22;3875;46.562;4.898;2023-09-07T14:31:30;37.10;47.00
7666;DHT22;3875;46.562;4.898;2023-09-07T14:33:56;37.00;46.60
7666;DHT22;3875;46.562;4.898;2023-09-07T14:36:21;37.00;47.20
7666;DHT22;3875;46.562;4.898;2023-09-07T14:38:47;37.10;47.00
7666;DHT22;3875;46.562;4.898;2023-09-07T14:41:13;37.00;46.60
7666;DHT22;3875;46.562;4.898;2023-09-07T14:43:48;37.00;46.50
7666;DHT22;3875;46.562;4.898;2023-09-07T14:46:14;37.00;46.40
7666;DHT22;3875;46.562;4.898;2023-09-07T14:48:41;37.00;46.80
7666;DHT22;3875;46.562;4.898;2023-09-07T14:51:06;37.10;46.60
7666;DHT22;3875;46.562;4.898;2023-09-07T14:53:32;37.10;46.40
7666;DHT22;3875;46.562;4.898;2023-09-07T14:55:58;37.10;46.60
7666;DHT22;3875;46.562;4.898;2023-09-07T14:58:23;37.10;46.70
7666;DHT22;3875;46.562;4.898;2023-09-07T15:00:49;37.10;46.50
7666;DHT22;3875;46.562;4.898;2023-09-07T15:03:15;37.00;46.90
7666;DHT22;3875;46.562;4.898;2023-09-07T15:05:40;37.00;46.70
7666;DHT22;3875;46.562;4.898;2023-09-07T15:08:06;36.90;46.40
7666;DHT22;3875;46.562;4.898;2023-09-07T15:10:32;36.90;46.70
7666;DHT22;3875;46.562;4.898;2023-09-07T15:13:00;36.90;46.70
7666;DHT22;3875;46.562;4.898;2023-09-07T15:15:28;37.00;46.80
7666;DHT22;3875;46.562;4.898;2023-09-07T15:17:54;37.10;46.60
7666;DHT22;3875;46.562;4.898;2023-09-07T15:20:20;37.10;46.00
7666;DHT22;3875;46.562;4.898;2023-09-07T15:22:45;37.10;46.40
7666;DHT22;3875;46.562;4.898;2023-09-07T15:25:11;37.10;46.60
7666;DHT22;3875;46.562;4.898;2023-09-07T15:27:37;37.20;46.70
7666;DHT22;3875;46.562;4.898;2023-09-07T15:30:03;37.10;45.90
7666;DHT22;3875;46.562;4.898;2023-09-07T15:32:29;37.10;45.80
7666;DHT22;3875;46.562;4.898;2023-09-07T15:34:55;37.10;45.70
7666;DHT22;3875;46.562;4.898;2023-09-07T15:37:21;37.10;46.00
7666;DHT22;3875;46.562;4.898;2023-09-07T15:39:46;37.10;45.30
7666;DHT22;3875;46.562;4.898;2023-09-07T15:42:12;37.20;45.70
7666;DHT22;3875;46.562;4.898;2023-09-07T15:44:38;37.20;45.70
7666;DHT22;3875;46.562;4.898;2023-09-07T15:47:03;37.20;45.80
7666;DHT22;3875;46.562;4.898;2023-09-07T15:49:30;37.40;45.50
7666;DHT22;3875;46.562;4.898;2023-09-07T15:51:56;37.50;45.30
7666;DHT22;3875;46.562;4.898;2023-09-07T15:54:22;37.40;45.20
7666;DHT22;3875;46.562;4.898;2023-09-07T15:56:47;37.60;45.30
7666;DHT22;3875;46.562;4.898;2023-09-07T15:59:13;37.90;45.20
7666;DHT22;3875;46.562;4.898;2023-09-07T16:01:38;38.30;44.60
7666;DHT22;3875;46.562;4.898;2023-09-07T16:04:04;39.10;43.80